默认 日期 大小 文件数 浏览量 最新下载 xml
2 2 2012磁力链接相关资源由用户搜索指令自动获取,结果来源于网络,本站不存储任何资料,亦不承担任何责任,请于24小时内删除,搜索到11955个磁力,显示前4000条数据,用时96ms。
    {"covers": {"back.jpg": 14201015, "inlay.jpg": 13294507, "cd box.jpg": 23985024, "inside.jpg": 24193686, "cd back.jpg": 324871, "front + back.jpg": 23627445}, "08. Валерия - Хризантемы.mp3": 8893211, "11. Алсу - Фея добрых снов.mp3": 6515024, "18. ...
创建时间: 2018-12-26 16:10:22 大小:257.42 MB 文件数量:26 热度:9 最近下载:2025-04-03 10:20:02
    ... , "Przyjaciel.Swietego.Mikolaja.Swiateczne.szczeniaki.2.2012.PLDUB.480p.BRRip.AC3.XviD ...
创建时间: 2018-12-26 17:03:16 大小:1.12 GB 文件数量:5 热度:9 最近下载:2025-04-03 09:29:02
    ... .mp3": 10828431, "15 Love Jams 2 Outro.mp3": 9015535, "09 Is ...
创建时间: 2018-12-26 19:12:30 大小:114.49 MB 文件数量:14 热度:13 最近下载:2025-08-03 11:17:11
    ... ": 212943, "The.Expendables.2.2012.iNTERNAL.BDRip.x264.AC3-ADiOS ... ": 213691, "The.Expendables.2.2012.iNTERNAL.BDRip.x264.AC3-ADiOS ... ": 186859, "The.Expendables.2.2012.iNTERNAL.BDRip.x264.AC3-ADiOS ... ": 233304, "The.Expendables.2.2012.iNTERNAL.BDRip.x264.AC3-ADiOS ...
创建时间: 2018-12-26 19:16:39 大小:1.44 GB 文件数量:10 热度:11 最近下载:2025-04-03 09:33:03
    {"HR.srt": 48129, "Nfo.txt": 2623, "The.Twilight.Saga.Breaking.Dawn.Part.2.2012.SLO.srt": 48323, "The.Twilight.Saga.Breaking.Dawn.Part.2.2012.SLO.CROSubss.DVDRIP.x264.AAC-IDR.mp4": 869562996}
创建时间: 2018-12-26 19:16:49 大小:829.37 MB 文件数量:4 热度:11 最近下载:2025-04-03 09:32:01
    {"Soft": {"Redist": {"vcredist_x64.exe": 7188536, "vcredist_x86.exe": 6498200}, "DirectX": {"DSETUP.dll": 95576, "DXSETUP.exe": 517976, "dsetup32.dll": 1566040, "dxupdate.cab": 97152, "dxdllreg_x86.cab": 44624, "APR2007_xinput_x64.cab": 96817, " ...
创建时间: 2018-12-26 19:57:56 大小:765.92 MB 文件数量:29 热度:12 最近下载:2025-04-03 04:26:02
    {"nsf": {"11 go_diego - Peace!.nsf": 14331, "01 spacecosmic - Enter.nsf": 7096, "07 Squarehill - Moonwalker.nsf": 32896, "04 bertfm - shitty club III.nsf": 11983, "05 Reboot Me - Hit My Heart.nsf": 17536, "10 Oliveli - Braindestruction.nsf": 11253, "06 ...
创建时间: 2018-12-26 20:45:20 大小:65.32 MB 文件数量:23 热度:10 最近下载:2025-04-03 09:30:02
    {"Marilyn Monroe - Sings! Best Of 2 CD-2012).zip": 231735710}
创建时间: 2018-12-26 22:05:05 大小:221 MB 文件数量:1 热度:13 最近下载:2025-04-03 09:31:03
    {"sample.avi": 12269568, "akos-the.expendables.2.2012.brrip.xvid.avi": 1501573346, "akos-the.expendables.2.2012.brrip.xvid.nfo": 1653, "akos-the.expendables.2.2012.brrip.xvid.srt": 54317}
创建时间: 2018-12-26 22:21:36 大小:1.41 GB 文件数量:4 热度:9 最近下载:2025-04-03 09:31:03
    {"sample.avi": 8695488, "UnknOwN.nfo": 10896, "sampledark.avi": 12332844, "tsbdp2UnKnOwN.avi": 1255304624}
创建时间: 2018-12-26 23:10:07 大小:1.19 GB 文件数量:4 热度:9 最近下载:2025-04-03 09:33:02
    ... , "CD 1.jpg": 3311226, "CD 2.jpg": 3278918, "Front.jpg": 7768253 ... , "Booklet 1.jpg": 9897843, "Booklet 2.jpg": 9764770, "Booklet 3.jpg ... The Secrets.mp3": 10187798}, "Disc 2": {"Front.jpg": 379397, "06. Here ...
创建时间: 2018-12-26 23:15:10 大小:354.66 MB 文件数量:40 热度:10 最近下载:2025-04-03 03:45:02
    {"Covers": {"Taken 2.jpg": 2919488}, "Taken 2.mkv": 3655457681, "Taken 2.nfo": 1807, "Taken 2.srt": 71026}
创建时间: 2018-12-26 23:17:43 大小:3.41 GB 文件数量:4 热度:10 最近下载:2025-04-03 08:16:02
    {"RARBG.txt": 30, "2.Jacks.2012.1080p.BluRay.H264.AAC-RARBG.mp4": 1777010012}
创建时间: 2018-12-27 00:07:12 大小:1.65 GB 文件数量:2 热度:14 最近下载:2025-04-03 09:32:02
    {"The Soul Sessions Vol.2": {"2012.jpg": 58472, "Info.txt": 1056, " ... ": 7779561, "The Soul Sessions Vol. 2.m3u": 927, "11 Then You ...
创建时间: 2018-12-27 01:39:06 大小:111.1 MB 文件数量:15 热度:12 最近下载:2025-04-03 09:30:01
    ... Relax Sector - Bleak Winter Wailing - 2 ' 2012.jpg": 285011, "Plexus Relax Sector ... - Bleak Winter Wailing - 2 ' 2012.txt": 3328, "010.Романтик - Прощание ... Relax Sector - Bleak Winter Wailing - 2 ' 2012 (Mix By Eguana).mp3": 126108915}
创建时间: 2018-12-27 01:47:42 大小:249.11 MB 文件数量:14 热度:9 最近下载:2025-04-03 09:34:03
    {"www.TamilRockers.net Face 2 Face [2012.Malayalam.DVDRip.x264.Esub-1CD-Rockers].mkv": 733730740, "www.TamilRockers.net Face 2 Face [2012.Malayalam.DVDRip.x264.Esub-1CD-Rockers].srt": 121270}
创建时间: 2018-12-27 01:49:57 大小:699.86 MB 文件数量:2 热度:8 最近下载:2025-04-03 09:32:01
    ... проза. Т. 1 (Литературные памятники) - 2012.djvu": 38174736, "Готье Т. - Романическая ... проза. Т. 2 (Литературные памятники) - 2012.djvu": 34793486}
创建时间: 2018-12-27 01:52:23 大小:69.59 MB 文件数量:2 热度:6 最近下载:2025-04-03 09:32:03
    {"Cover.jpg": 141212, "Belladonna's Cock Pigs 2 (2012) CD1.avi": 732954624, "Belladonna's Cock Pigs 2 (2012) CD2.avi": 734771200, "Belladonna's Cock Pigs 2 (2012) CD3.avi": 732215296, "Belladonna's Cock Pigs 2 (2012) CD4.avi": 734859264}
创建时间: 2018-12-27 03:57:27 大小:2.73 GB 文件数量:5 热度:18 最近下载:2025-08-01 09:26:02
    {"Taken.2.2012.1080p.REPACK.WEB-DL.DD5.1.H.264-BS.mkv": 3390566916}
创建时间: 2018-12-27 04:05:19 大小:3.16 GB 文件数量:1 热度:7 最近下载:2025-04-03 08:27:01
    {"cd.jpg": 3662536, "cover.jpg": 681819, "06. deadmau5 - Maths.mp3": 16035655, "09. deadmau5 - Closer.mp3": 16855901, "04. deadmau5 - F'n Pig.mp3": 21016685, "10. deadmau5 - October.mp3": 17337601, "11. deadmau5 - Sleepless.mp3": 9967937, "01. deadmau5 - ...
创建时间: 2018-12-27 04:38:37 大小:188.33 MB 文件数量:15 热度:12 最近下载:2025-04-03 09:33:02